Time;durP1;ratioP1;P1;durP2;ratioP2;P2;SDS_P1;SDS_P2;PMS_P1;PMS_P2;Temp;Humidity;BMP_temperature;BMP_pressure;BME280_temperature;BME280_humidity;BME280_pressure;Samples;Min_cycle;Max_cycle;Signal;HPM_P1;HPM_P2
2024/02/18 00:01:06;;;;;;;13.23;7.78;;;;;;;15.24;73.95;103123.69;5049057;28;20106;-50
2024/02/18 00:03:31;;;;;;;16.58;7.80;;;;;;;15.24;73.67;103128.94;5048916;28;20037;-49
2024/02/18 00:05:58;;;;;;;15.23;7.65;;;;;;;15.20;73.79;103129.66;5053209;28;20039;-49
2024/02/18 00:08:23;;;;;;;14.63;7.82;;;;;;;15.23;73.99;103123.63;5052944;28;20618;-51
2024/02/18 00:10:48;;;;;;;14.20;7.40;;;;;;;15.36;73.67;103121.41;5052691;28;20037;-49
2024/02/18 00:13:13;;;;;;;16.10;7.30;;;;;;;15.19;73.91;103119.09;5053216;28;20124;-52
2024/02/18 00:15:39;;;;;;;16.10;7.95;;;;;;;15.39;73.73;103112.72;5052645;28;20021;-53
2024/02/18 00:18:05;;;;;;;16.45;7.50;;;;;;;15.42;73.42;103116.34;5053127;28;20399;-51
2024/02/18 00:20:30;;;;;;;14.85;8.05;;;;;;;15.40;73.49;103118.03;5052001;28;20495;-50
2024/02/18 00:22:55;;;;;;;17.85;7.93;;;;;;;15.29;73.91;103108.03;5052528;28;20097;-51
2024/02/18 00:25:21;;;;;;;21.08;8.00;;;;;;;15.26;73.88;103115.81;5052938;28;20040;-51
2024/02/18 00:27:46;;;;;;;18.05;7.60;;;;;;;15.24;74.16;103102.66;5052486;28;20120;-52
2024/02/18 00:30:11;;;;;;;14.05;7.65;;;;;;;15.49;73.14;103108.63;5052279;28;20548;-52
2024/02/18 00:32:36;;;;;;;17.13;7.90;;;;;;;15.63;72.81;103102.94;5052288;28;20033;-50
2024/02/18 00:35:02;;;;;;;16.30;7.55;;;;;;;15.51;72.98;103107.81;5052746;28;20032;-51
2024/02/18 00:37:27;;;;;;;15.55;7.95;;;;;;;15.57;72.83;103100.13;5052317;28;20059;-53
2024/02/18 00:39:52;;;;;;;17.73;7.72;;;;;;;15.80;71.76;103106.00;5051523;28;20082;-51
2024/02/18 00:42:18;;;;;;;16.83;7.82;;;;;;;15.75;71.83;103105.00;5052700;28;20039;-47
2024/02/18 00:44:43;;;;;;;15.95;7.38;;;;;;;15.73;72.02;103106.72;5052130;28;20076;-49
2024/02/18 00:47:08;;;;;;;16.88;7.50;;;;;;;15.75;71.61;103097.13;5052644;28;20025;-49
2024/02/18 00:49:34;;;;;;;13.65;7.00;;;;;;;15.80;71.27;103093.75;5051362;28;20033;-48
2024/02/18 00:51:59;;;;;;;15.82;7.35;;;;;;;15.65;71.67;103089.84;5052109;28;20025;-51
2024/02/18 00:54:25;;;;;;;16.70;7.45;;;;;;;15.76;71.44;103091.91;5052121;28;20114;-54
2024/02/18 00:56:50;;;;;;;12.90;6.53;;;;;;;15.58;71.75;103087.88;5051925;28;20029;-52
2024/02/18 00:59:16;;;;;;;13.02;6.15;;;;;;;15.77;71.08;103080.53;5050117;28;20041;-49
2024/02/18 01:01:42;;;;;;;16.83;6.45;;;;;;;15.59;71.27;103074.78;5051762;28;20029;-51
2024/02/18 01:04:07;;;;;;;10.55;5.97;;;;;;;15.57;71.11;103078.19;5052112;28;20087;-49
2024/02/18 01:06:32;;;;;;;12.30;6.35;;;;;;;15.54;71.08;103078.13;5051709;28;20478;-47
2024/02/18 01:08:57;;;;;;;9.93;5.78;;;;;;;15.53;70.70;103078.97;5051875;28;20033;-51
2024/02/18 01:11:23;;;;;;;13.02;5.30;;;;;;;16.06;69.15;103075.16;5050477;28;20055;-50
2024/02/18 01:13:48;;;;;;;14.68;5.95;;;;;;;15.66;69.96;103071.47;5051753;28;20499;-48
2024/02/18 01:16:14;;;;;;;12.13;5.40;;;;;;;15.90;68.92;103067.72;5051266;28;20029;-49
2024/02/18 01:18:40;;;;;;;10.57;5.32;;;;;;;15.86;68.92;103061.47;5052160;28;20506;-49
2024/02/18 01:21:06;;;;;;;12.98;5.43;;;;;;;15.91;68.49;103059.88;5052671;28;20120;-48
2024/02/18 01:23:31;;;;;;;9.65;5.40;;;;;;;15.71;69.10;103066.34;5052693;28;20057;-50
2024/02/18 01:25:56;;;;;;;8.73;4.78;;;;;;;15.75;68.35;103062.94;5053451;28;20040;-51
2024/02/18 01:28:24;;;;;;;8.32;4.78;;;;;;;16.01;67.79;103055.72;5053251;28;20040;-50
2024/02/18 01:30:49;;;;;;;8.68;4.47;;;;;;;15.94;67.77;103046.78;5052780;28;20033;-49
2024/02/18 01:33:15;;;;;;;9.23;4.53;;;;;;;15.66;68.58;103050.44;5052821;28;20040;-49
2024/02/18 01:35:40;;;;;;;12.02;4.28;;;;;;;15.56;69.51;103045.75;5051847;28;20025;-51
2024/02/18 01:38:05;;;;;;;8.93;4.13;;;;;;;15.97;66.89;103036.34;5051888;28;20037;-48
2024/02/18 01:40:31;;;;;;;11.38;4.10;;;;;;;15.79;68.22;103041.13;5050575;28;20461;-49
2024/02/18 01:42:56;;;;;;;8.93;4.00;;;;;;;15.42;69.60;103040.13;5051154;28;20035;-47
2024/02/18 01:45:21;;;;;;;7.25;3.92;;;;;;;15.80;69.01;103035.91;5051132;28;20041;-49
2024/02/18 01:47:47;;;;;;;10.10;3.90;;;;;;;15.51;70.47;103042.09;5050639;28;20071;-49
2024/02/18 01:50:12;;;;;;;10.10;4.10;;;;;;;15.60;69.77;103031.88;5050729;28;20048;-50
2024/02/18 01:52:42;;;;;;;10.70;4.00;;;;;;;15.32;70.64;103024.03;5050660;28;20037;-52
2024/02/18 01:55:10;;;;;;;9.75;3.88;;;;;;;15.00;72.33;103026.59;5051225;28;20063;-49
2024/02/18 01:57:36;;;;;;;10.75;4.07;;;;;;;15.51;71.36;103030.69;5050627;28;20495;-48
2024/02/18 02:00:03;;;;;;;13.35;3.88;;;;;;;15.44;71.54;103029.63;5050349;28;20487;-49
2024/02/18 02:02:28;;;;;;;7.63;3.70;;;;;;;15.35;71.75;103017.13;5050882;28;20407;-48
2024/02/18 02:04:54;;;;;;;12.93;3.88;;;;;;;15.18;72.53;103015.78;5050670;28;20086;-52
2024/02/18 02:07:21;;;;;;;10.35;3.80;;;;;;;15.28;72.52;103016.91;5042639;28;20557;-51
2024/02/18 02:09:47;;;;;;;9.23;3.65;;;;;;;15.33;72.82;103016.19;5050022;28;20076;-50
2024/02/18 02:12:12;;;;;;;8.02;3.80;;;;;;;15.41;72.46;103009.41;5050638;28;20064;-52
2024/02/18 02:14:37;;;;;;;12.88;4.35;;;;;;;15.34;72.63;103006.56;5050284;28;20033;-49
2024/02/18 02:17:05;;;;;;;10.18;4.22;;;;;;;14.94;74.04;103012.44;5057866;28;20029;-49
2024/02/18 02:19:30;;;;;;;12.32;4.30;;;;;;;15.12;72.94;103009.44;5069368;28;20052;-52
2024/02/18 02:21:55;;;;;;;9.52;4.05;;;;;;;15.07;73.46;103001.41;5070607;28;20048;-51
2024/02/18 02:24:20;;;;;;;12.05;4.05;;;;;;;15.28;73.47;102995.88;5069456;28;20037;-47
2024/02/18 02:26:49;;;;;;;10.40;4.15;;;;;;;15.08;74.37;103000.56;5068055;28;20092;-48
2024/02/18 02:29:15;;;;;;;12.32;4.30;;;;;;;15.36;72.99;102997.00;5070136;28;20037;-51
2024/02/18 02:31:47;;;;;;;8.95;4.20;;;;;;;15.28;73.51;102991.53;5069473;28;20037;-47
2024/02/18 02:34:14;;;;;;;12.05;4.78;;;;;;;15.34;73.24;102983.81;5070065;28;20094;-48
2024/02/18 02:36:40;;;;;;;9.82;4.50;;;;;;;15.32;72.75;102980.22;5069654;28;20036;-47
2024/02/18 02:39:07;;;;;;;8.98;4.28;;;;;;;15.35;73.08;102979.44;5069972;28;20090;-49
2024/02/18 02:41:33;;;;;;;12.23;4.72;;;;;;;15.20;73.55;102973.75;5069547;28;20032;-48
2024/02/18 02:43:58;;;;;;;11.55;4.57;;;;;;;15.41;72.54;102969.97;5070124;28;20090;-50
2024/02/18 02:46:24;;;;;;;10.10;4.80;;;;;;;15.14;73.77;102965.69;5069726;28;20051;-51
2024/02/18 02:48:49;;;;;;;11.75;4.97;;;;;;;15.37;72.66;102960.22;5069283;28;20518;-49
2024/02/18 02:51:14;;;;;;;11.10;5.18;;;;;;;15.44;72.81;102962.16;5069564;28;20495;-49
2024/02/18 02:53:40;;;;;;;12.15;4.88;;;;;;;15.24;73.38;102950.25;5069535;28;20036;-47
2024/02/18 02:56:08;;;;;;;13.15;5.30;;;;;;;15.25;73.23;102941.50;5069795;28;20032;-49
2024/02/18 02:58:34;;;;;;;11.95;5.13;;;;;;;15.14;73.54;102940.31;5067817;28;20029;-50
2024/02/18 03:00:59;;;;;;;13.60;4.97;;;;;;;15.20;73.33;102936.97;5069398;28;20082;-51
2024/02/18 03:03:24;;;;;;;12.02;5.05;;;;;;;14.98;74.16;102940.75;5069743;28;20037;-54
2024/02/18 03:05:50;;;;;;;10.63;5.03;;;;;;;15.20;73.69;102927.34;5069035;28;20029;-48
2024/02/18 03:08:16;;;;;;;10.70;4.93;;;;;;;15.29;73.27;102926.72;5069813;28;20494;-52
2024/02/18 03:10:42;;;;;;;14.07;4.93;;;;;;;15.03;74.29;102921.63;5067942;28;20126;-49
2024/02/18 03:13:08;;;;;;;9.68;4.70;;;;;;;14.68;75.63;102918.88;5069739;28;20033;-50
2024/02/18 03:15:33;;;;;;;10.18;5.18;;;;;;;14.96;74.88;102914.44;5068982;28;20032;-54
2024/02/18 03:17:58;;;;;;;9.48;5.07;;;;;;;14.97;74.13;102908.34;5069581;28;20031;-48
2024/02/18 03:20:23;;;;;;;11.90;5.57;;;;;;;15.02;74.21;102905.81;5068413;28;20031;-50
2024/02/18 03:22:50;;;;;;;11.10;4.95;;;;;;;14.91;74.31;102896.78;5069460;28;20044;-48
2024/02/18 03:25:16;;;;;;;13.90;5.10;;;;;;;14.84;75.15;102897.44;5069478;28;20032;-52
2024/02/18 03:27:42;;;;;;;11.70;4.70;;;;;;;14.80;74.23;102893.84;5067286;28;20043;-50
2024/02/18 03:30:07;;;;;;;12.70;4.63;;;;;;;14.99;74.17;102888.28;5068903;28;20036;-50
2024/02/18 03:32:36;;;;;;;11.15;4.70;;;;;;;14.87;74.54;102876.53;5068417;28;20490;-49
2024/02/18 03:35:04;;;;;;;12.35;5.05;;;;;;;15.07;73.83;102871.78;5069647;28;20032;-52
2024/02/18 03:37:29;;;;;;;12.45;4.60;;;;;;;15.05;73.17;102860.38;5069339;28;20063;-50
2024/02/18 03:39:55;;;;;;;19.35;5.03;;;;;;;14.97;73.83;102862.78;5074072;28;20024;-49
2024/02/18 03:42:20;;;;;;;11.68;4.60;;;;;;;14.97;73.52;102852.28;5076151;28;20071;-50
2024/02/18 03:44:45;;;;;;;10.63;4.47;;;;;;;15.16;72.26;102846.66;5075770;28;20048;-47
2024/02/18 03:47:11;;;;;;;14.48;4.63;;;;;;;14.88;73.34;102837.16;5076236;28;20036;-46
2024/02/18 03:49:36;;;;;;;11.23;4.75;;;;;;;14.97;72.86;102840.03;5075180;28;20060;-49
2024/02/18 03:52:01;;;;;;;12.88;4.40;;;;;;;15.06;72.60;102834.16;5076249;28;20509;-52
2024/02/18 03:54:26;;;;;;;9.85;4.38;;;;;;;14.69;74.37;102823.50;5075830;28;20402;-49
2024/02/18 03:56:52;;;;;;;10.82;4.32;;;;;;;14.59;73.93;102828.50;5075157;28;20048;-49
2024/02/18 03:59:18;;;;;;;13.40;4.57;;;;;;;14.65;74.13;102825.16;5075167;28;20064;-48
2024/02/18 04:01:43;;;;;;;13.18;4.80;;;;;;;14.75;73.64;102805.31;5075699;28;20026;-48
2024/02/18 04:04:09;;;;;;;13.10;4.38;;;;;;;14.56;74.09;102810.06;5075994;28;20067;-49
2024/02/18 04:06:34;;;;;;;11.70;5.07;;;;;;;14.54;74.86;102803.84;5075882;28;20534;-47
2024/02/18 04:08:59;;;;;;;14.63;4.85;;;;;;;14.66;73.93;102799.78;5075953;28;20527;-49
2024/02/18 04:11:25;;;;;;;10.32;4.40;;;;;;;14.68;73.75;102788.50;5075495;28;20036;-48
2024/02/18 04:13:50;;;;;;;13.07;4.57;;;;;;;14.34;75.02;102783.09;5075292;28;20032;-49
2024/02/18 04:16:15;;;;;;;12.73;4.80;;;;;;;14.45;74.47;102779.09;5075677;28;20032;-49
2024/02/18 04:18:42;;;;;;;12.55;4.90;;;;;;;14.39;74.53;102779.81;5075374;28;20498;-47
2024/02/18 04:21:07;;;;;;;11.55;4.45;;;;;;;14.39;74.33;102771.97;5075531;28;20036;-52
2024/02/18 04:23:33;;;;;;;12.05;4.70;;;;;;;14.67;73.39;102772.69;5075432;28;20028;-49
2024/02/18 04:25:58;;;;;;;15.05;4.82;;;;;;;14.58;73.20;102761.09;5075807;28;20108;-49
2024/02/18 04:28:23;;;;;;;13.95;4.60;;;;;;;14.51;73.60;102758.28;5075689;28;20402;-48
2024/02/18 04:30:49;;;;;;;17.23;5.32;;;;;;;14.40;74.13;102757.97;5074636;28;20490;-47
2024/02/18 04:33:14;;;;;;;11.65;4.97;;;;;;;14.54;73.41;102748.75;5075342;28;20033;-47
2024/02/18 04:35:39;;;;;;;14.10;4.60;;;;;;;14.77;72.68;102746.72;5075098;28;20123;-47
2024/02/18 04:38:05;;;;;;;14.15;4.60;;;;;;;14.45;73.69;102745.88;5075676;28;20111;-47
2024/02/18 04:40:31;;;;;;;13.80;4.82;;;;;;;14.46;73.43;102745.00;5074637;28;20056;-48
2024/02/18 04:42:56;;;;;;;12.02;4.90;;;;;;;14.30;73.91;102745.41;5075462;28;20070;-47
2024/02/18 04:45:21;;;;;;;11.38;4.40;;;;;;;14.30;74.17;102731.41;5075370;28;20541;-46
2024/02/18 04:47:47;;;;;;;14.15;4.63;;;;;;;14.25;74.09;102746.13;5075236;28;20036;-52
2024/02/18 04:50:12;;;;;;;18.30;4.88;;;;;;;14.35;73.74;102735.94;5074127;28;20021;-50
2024/02/18 04:52:37;;;;;;;13.88;4.60;;;;;;;14.44;73.24;102737.97;5071868;28;20033;-49
2024/02/18 04:55:03;;;;;;;9.27;4.55;;;;;;;14.42;73.73;102737.91;5072456;28;20109;-47
2024/02/18 04:57:29;;;;;;;12.75;4.80;;;;;;;14.49;73.34;102733.72;5072351;28;20035;-54
2024/02/18 04:59:54;;;;;;;14.32;4.60;;;;;;;14.54;73.43;102724.22;5071527;28;20032;-48
2024/02/18 05:02:20;;;;;;;14.48;5.03;;;;;;;14.39;73.69;102727.34;5072187;28;20039;-47
2024/02/18 05:04:46;;;;;;;12.25;4.63;;;;;;;14.10;74.65;102728.22;5072330;28;20128;-50
2024/02/18 05:07:11;;;;;;;12.80;4.75;;;;;;;14.14;75.08;102717.00;5072338;28;20123;-48
2024/02/18 05:09:40;;;;;;;11.45;4.60;;;;;;;14.25;74.03;102710.28;5071817;28;20563;-50
2024/02/18 05:12:06;;;;;;;12.45;4.78;;;;;;;14.51;73.31;102706.69;5072139;28;20032;-48
2024/02/18 05:14:31;;;;;;;12.82;4.40;;;;;;;14.16;74.56;102715.28;5071845;28;20089;-47
2024/02/18 05:16:59;;;;;;;13.23;4.60;;;;;;;14.27;73.98;102711.25;5071976;28;20105;-48
2024/02/18 05:19:25;;;;;;;10.90;4.65;;;;;;;14.00;75.72;102711.34;5071885;28;20036;-51
2024/02/18 05:21:50;;;;;;;11.95;4.80;;;;;;;14.30;74.19;102706.06;5077640;28;20158;-48
2024/02/18 05:24:16;;;;;;;13.88;5.30;;;;;;;14.23;74.38;102712.88;5074266;28;20036;-46
2024/02/18 05:26:42;;;;;;;11.35;4.97;;;;;;;14.23;75.19;102719.84;5071504;28;20494;-49
2024/02/18 05:29:08;;;;;;;10.68;4.80;;;;;;;14.01;75.75;102707.00;5072686;28;20039;-47
2024/02/18 05:31:35;;;;;;;15.30;5.20;;;;;;;14.18;75.38;102706.63;5070807;28;20124;-46
2024/02/18 05:34:00;;;;;;;13.98;4.80;;;;;;;14.10;75.55;102700.25;5073795;28;20048;-47
2024/02/18 05:36:26;;;;;;;15.15;5.43;;;;;;;13.93;75.88;102701.53;5072811;28;20024;-46
2024/02/18 05:38:51;;;;;;;11.00;5.10;;;;;;;14.14;75.77;102702.13;5069619;28;20024;-47
2024/02/18 05:41:17;;;;;;;9.90;4.90;;;;;;;14.16;75.43;102696.91;5070985;28;20048;-48
2024/02/18 05:43:42;;;;;;;15.25;5.60;;;;;;;13.87;76.59;102688.22;5070914;28;20028;-47
2024/02/18 05:46:09;;;;;;;17.13;5.43;;;;;;;13.95;76.83;102686.72;5071785;28;20475;-46
2024/02/18 05:48:35;;;;;;;9.75;4.95;;;;;;;13.94;76.72;102671.84;5049317;28;20025;-48
2024/02/18 05:51:00;;;;;;;14.98;5.30;;;;;;;14.05;76.04;102670.41;5062582;28;20032;-48
2024/02/18 05:53:26;;;;;;;14.43;5.10;;;;;;;13.72;76.95;102666.84;5071474;28;20543;-49
2024/02/18 05:55:51;;;;;;;14.77;5.35;;;;;;;13.92;76.31;102660.41;5071004;28;20035;-46
2024/02/18 05:58:16;;;;;;;13.48;5.50;;;;;;;13.64;77.83;102656.13;5071505;28;20086;-48
2024/02/18 06:00:42;;;;;;;13.35;5.50;;;;;;;13.60;77.92;102666.47;5070126;28;20025;-47
2024/02/18 06:03:08;;;;;;;15.15;5.55;;;;;;;13.62;78.12;102659.53;5070693;28;20032;-48
2024/02/18 06:05:33;;;;;;;14.20;5.28;;;;;;;13.58;78.08;102649.81;5070659;28;20403;-47
2024/02/18 06:07:59;;;;;;;17.00;5.50;;;;;;;13.46;78.34;102654.69;5071442;28;20055;-48
2024/02/18 06:10:24;;;;;;;13.40;5.32;;;;;;;13.73;77.13;102651.13;5070401;28;20064;-50
2024/02/18 06:12:50;;;;;;;11.85;5.38;;;;;;;13.56;77.65;102644.50;5070259;28;20033;-47
2024/02/18 06:15:15;;;;;;;13.27;5.25;;;;;;;13.46;78.42;102638.97;5070622;28;20453;-49
2024/02/18 06:17:41;;;;;;;15.80;5.68;;;;;;;13.49;77.97;102629.47;5070225;28;20075;-50
2024/02/18 06:20:10;;;;;;;11.25;5.28;;;;;;;13.76;77.24;102626.75;5070044;28;20033;-47
2024/02/18 06:22:36;;;;;;;12.98;5.47;;;;;;;13.97;76.01;102611.59;5070105;28;20028;-47
2024/02/18 06:25:02;;;;;;;13.40;5.32;;;;;;;13.61;76.93;102621.94;5071030;28;20028;-53
2024/02/18 06:27:27;;;;;;;12.63;5.03;;;;;;;13.90;76.09;102614.03;5071733;28;20107;-51
2024/02/18 06:29:53;;;;;;;13.43;5.25;;;;;;;13.92;76.08;102613.22;5070873;28;20047;-50
2024/02/18 06:32:19;;;;;;;11.45;5.43;;;;;;;13.91;76.33;102607.91;5071414;28;20101;-48
2024/02/18 06:34:44;;;;;;;15.13;5.28;;;;;;;13.86;75.95;102602.56;5069309;28;20032;-52
2024/02/18 06:37:09;;;;;;;16.08;5.53;;;;;;;13.90;76.21;102607.06;5073242;28;20041;-51
2024/02/18 06:39:35;;;;;;;11.10;5.47;;;;;;;13.86;76.07;102599.94;5072786;28;20540;-46
2024/02/18 06:42:00;;;;;;;13.07;5.07;;;;;;;13.52;77.51;102603.34;5069221;28;20123;-47
2024/02/18 06:44:25;;;;;;;14.13;5.03;;;;;;;13.66;77.15;102591.50;5069133;28;20040;-51
2024/02/18 06:46:51;;;;;;;14.65;5.45;;;;;;;13.53;76.92;102589.41;5069719;28;20025;-50
2024/02/18 06:49:16;;;;;;;13.13;5.10;;;;;;;13.64;77.53;102602.81;5068556;28;20486;-50
2024/02/18 06:51:42;;;;;;;14.23;5.38;;;;;;;13.42;77.90;102606.53;5069677;28;20498;-50
2024/02/18 06:54:07;;;;;;;11.25;4.93;;;;;;;13.51;77.66;102591.09;5069924;28;20120;-53
2024/02/18 06:56:32;;;;;;;15.40;5.13;;;;;;;13.57;77.61;102590.38;5069455;28;20534;-50
2024/02/18 06:58:58;;;;;;;10.88;4.75;;;;;;;13.78;77.02;102591.84;5069648;28;20395;-48
2024/02/18 07:01:23;;;;;;;12.13;5.05;;;;;;;13.32;78.84;102592.28;5069475;28;20387;-47
2024/02/18 07:03:49;;;;;;;11.63;4.70;;;;;;;13.62;77.76;102581.81;5069364;28;20167;-49
2024/02/18 07:06:17;;;;;;;9.43;4.70;;;;;;;13.35;77.97;102579.31;5069790;28;20024;-47
2024/02/18 07:08:42;;;;;;;11.60;4.75;;;;;;;13.22;79.18;102571.03;5068914;28;20036;-49
2024/02/18 07:11:08;;;;;;;13.57;4.90;;;;;;;12.99;79.05;102576.41;5069159;28;20517;-51
2024/02/18 07:13:33;;;;;;;13.30;5.07;;;;;;;13.37;79.04;102566.22;5068505;28;20040;-53
2024/02/18 07:15:59;;;;;;;12.85;4.88;;;;;;;13.69;77.56;102569.75;5069832;28;20024;-48
2024/02/18 07:18:24;;;;;;;11.52;4.82;;;;;;;13.77;77.09;102563.88;5069445;28;20120;-51
2024/02/18 07:20:49;;;;;;;12.25;4.93;;;;;;;13.51;77.77;102564.88;5068790;28;20028;-51
2024/02/18 07:23:15;;;;;;;14.85;5.10;;;;;;;13.72;77.56;102559.38;5071090;28;20033;-47
2024/02/18 07:25:42;;;;;;;12.40;5.40;;;;;;;13.78;77.51;102554.28;5069284;28;20637;-49
2024/02/18 07:28:07;;;;;;;14.52;5.50;;;;;;;13.55;77.92;102556.25;5069815;28;20033;-49
2024/02/18 07:30:32;;;;;;;18.42;5.15;;;;;;;13.29;78.46;102552.03;5068801;28;20171;-47
2024/02/18 07:32:58;;;;;;;13.77;5.15;;;;;;;13.26;79.27;102549.31;5069097;28;20051;-52
2024/02/18 07:35:23;;;;;;;14.07;4.90;;;;;;;13.56;78.45;102550.19;5067905;28;20072;-49
2024/02/18 07:37:48;;;;;;;13.50;5.22;;;;;;;13.48;78.51;102543.81;5069357;28;20133;-47
2024/02/18 07:40:15;;;;;;;12.02;4.72;;;;;;;13.35;79.32;102547.88;5069495;28;20546;-52
2024/02/18 07:42:43;;;;;;;14.00;5.07;;;;;;;13.49;78.62;102553.47;5069113;28;20494;-49
2024/02/18 07:45:09;;;;;;;13.45;4.95;;;;;;;13.40;79.30;102543.63;5069897;28;20037;-48
2024/02/18 07:47:34;;;;;;;9.93;5.00;;;;;;;13.33;78.89;102549.53;5069570;28;20063;-49
2024/02/18 07:49:59;;;;;;;15.45;5.30;;;;;;;13.37;79.24;102543.53;5069379;28;20044;-50
2024/02/18 07:52:24;;;;;;;15.60;5.22;;;;;;;13.20;80.19;102549.13;5069951;28;20032;-49
2024/02/18 07:54:50;;;;;;;12.23;5.22;;;;;;;13.43;79.11;102540.19;5069563;28;20124;-49
2024/02/18 07:57:15;;;;;;;14.25;5.10;;;;;;;13.60;78.04;102538.06;5069079;28;20411;-48
2024/02/18 07:59:40;;;;;;;13.20;5.30;;;;;;;13.27;79.45;102532.75;5067251;28;20040;-47
2024/02/18 08:02:06;;;;;;;12.10;5.32;;;;;;;13.07;81.68;102544.34;5069205;28;20088;-49
2024/02/18 08:04:31;;;;;;;12.60;5.32;;;;;;;13.34;79.03;102519.00;5069176;28;20040;-47
2024/02/18 08:06:57;;;;;;;13.80;5.70;;;;;;;13.02;80.94;102544.22;5069474;28;20113;-46
2024/02/18 08:09:22;;;;;;;14.77;5.55;;;;;;;13.49;79.57;102523.75;5068892;28;20665;-49
2024/02/18 08:11:47;;;;;;;15.73;5.80;;;;;;;12.99;79.65;102518.81;5068861;28;20051;-50
2024/02/18 08:14:13;;;;;;;11.85;5.80;;;;;;;13.02;80.67;102520.66;5068961;28;20032;-48
2024/02/18 08:16:39;;;;;;;17.38;6.63;;;;;;;13.27;80.51;102517.03;5068748;28;20052;-49
2024/02/18 08:19:04;;;;;;;16.27;6.80;;;;;;;12.95;81.30;102513.44;5068734;28;20032;-48
2024/02/18 08:21:29;;;;;;;13.40;6.40;;;;;;;13.00;80.94;102514.47;5067845;28;20104;-52
2024/02/18 08:23:55;;;;;;;14.68;6.43;;;;;;;13.00;81.56;102502.25;5068717;28;20094;-52
2024/02/18 08:26:24;;;;;;;15.25;6.57;;;;;;;13.49;79.87;102508.94;5072046;28;20487;-50
2024/02/18 08:28:51;;;;;;;13.30;6.72;;;;;;;13.14;80.37;102505.31;5072076;28;20032;-52
2024/02/18 08:31:17;;;;;;;18.52;6.72;;;;;;;13.02;80.89;102499.69;5072501;28;20047;-50
2024/02/18 08:33:44;;;;;;;16.02;6.60;;;;;;;13.18;80.52;102503.66;5072139;28;20560;-47
2024/02/18 08:36:09;;;;;;;13.75;6.50;;;;;;;13.50;79.62;102497.59;5071409;28;20098;-49
2024/02/18 08:38:34;;;;;;;14.15;6.85;;;;;;;13.58;79.58;102493.47;5072175;28;20060;-49
2024/02/18 08:41:01;;;;;;;14.48;7.05;;;;;;;13.48;79.50;102491.44;5072051;28;20725;-47
2024/02/18 08:43:26;;;;;;;17.67;7.30;;;;;;;12.98;80.65;102493.50;5072246;28;20033;-50
2024/02/18 08:45:51;;;;;;;15.02;6.68;;;;;;;13.28;80.63;102488.28;5071732;28;20469;-52
2024/02/18 08:48:17;;;;;;;14.80;7.10;;;;;;;13.47;79.69;102483.56;5072281;28;20040;-53
2024/02/18 08:50:42;;;;;;;15.98;6.63;;;;;;;13.63;79.40;102476.13;5071185;28;20025;-49
2024/02/18 08:53:08;;;;;;;15.90;6.68;;;;;;;13.20;80.00;102463.59;5072406;28;20394;-48
2024/02/18 08:55:33;;;;;;;14.43;7.00;;;;;;;13.51;79.85;102465.31;5071948;28;20029;-50
2024/02/18 08:57:59;;;;;;;15.70;6.70;;;;;;;13.38;79.48;102468.44;5072653;28;20123;-50
2024/02/18 09:00:24;;;;;;;14.77;6.65;;;;;;;13.37;79.92;102457.09;5083649;22;20040;-46
2024/02/18 09:02:50;;;;;;;13.65;6.38;;;;;;;13.54;79.69;102451.44;5070242;28;20174;-51
2024/02/18 09:05:15;;;;;;;13.38;6.28;;;;;;;13.64;79.11;102454.31;5072141;28;20111;-46
2024/02/18 09:07:40;;;;;;;13.88;6.65;;;;;;;13.37;80.23;102454.47;5071313;28;20032;-49
2024/02/18 09:10:06;;;;;;;14.10;6.57;;;;;;;13.53;79.36;102444.41;5079367;28;20115;-49
2024/02/18 09:12:31;;;;;;;11.50;6.25;;;;;;;13.52;79.70;102434.78;5091826;28;20043;-47
2024/02/18 09:14:58;;;;;;;13.25;6.65;;;;;;;13.64;79.10;102430.75;5089646;28;20032;-46
2024/02/18 09:17:24;;;;;;;15.00;6.28;;;;;;;13.69;78.73;102431.72;5092247;28;20112;-47
2024/02/18 09:19:49;;;;;;;16.65;6.68;;;;;;;13.25;79.90;102429.66;5090848;28;20110;-48
2024/02/18 09:22:14;;;;;;;12.57;6.93;;;;;;;13.00;81.88;102428.06;5091863;28;20107;-46
2024/02/18 09:24:43;;;;;;;13.27;7.50;;;;;;;12.98;82.14;102421.94;5091605;28;20379;-49
2024/02/18 09:27:09;;;;;;;12.52;6.65;;;;;;;13.49;80.64;102427.69;5091825;28;20028;-46
2024/02/18 09:29:34;;;;;;;14.43;7.25;;;;;;;13.56;79.90;102418.28;5090653;28;20031;-47
2024/02/18 09:31:59;;;;;;;14.52;7.00;;;;;;;13.62;79.81;102410.56;5091571;28;20040;-46
2024/02/18 09:34:25;;;;;;;14.48;6.75;;;;;;;13.39;80.26;102407.38;5091489;28;20028;-47
2024/02/18 09:36:50;;;;;;;14.63;7.32;;;;;;;13.62;79.77;102400.97;5090230;28;20036;-49
2024/02/18 09:39:15;;;;;;;14.48;7.40;;;;;;;13.56;79.67;102389.44;5088799;28;20568;-47
2024/02/18 09:41:44;;;;;;;17.63;7.15;;;;;;;13.51;79.88;102376.25;5091031;28;20028;-47
2024/02/18 09:44:12;;;;;;;16.65;7.70;;;;;;;13.50;80.09;102379.69;5091544;28;20028;-46
2024/02/18 09:46:38;;;;;;;15.63;6.90;;;;;;;13.46;79.51;102376.97;5090996;28;20024;-45
2024/02/18 09:49:05;;;;;;;12.98;7.03;;;;;;;13.67;79.39;102377.50;5090942;28;20035;-48
2024/02/18 09:51:34;;;;;;;15.25;7.43;;;;;;;13.62;79.74;102373.88;5090449;28;20036;-48
2024/02/18 09:54:00;;;;;;;15.02;7.60;;;;;;;13.55;80.08;102362.34;5091444;28;20032;-46
2024/02/18 09:56:27;;;;;;;17.02;6.80;;;;;;;13.73;79.25;102346.19;5091177;28;20056;-46
2024/02/18 09:58:54;;;;;;;16.92;7.75;;;;;;;13.46;80.47;102356.91;5090451;28;20193;-51
2024/02/18 10:01:21;;;;;;;17.52;7.40;;;;;;;13.45;80.12;102349.00;5090405;28;20028;-44
2024/02/18 10:03:48;;;;;;;16.85;8.00;;;;;;;13.54;80.39;102354.47;5089064;28;20177;-48
2024/02/18 10:06:14;;;;;;;14.27;7.90;;;;;;;13.69;79.85;102341.75;5090834;28;20035;-48
2024/02/18 10:08:51;;;;;;;15.13;7.90;;;;;;;13.79;79.20;102341.09;5090229;28;20032;-46
2024/02/18 10:11:19;;;;;;;15.05;7.85;;;;;;;13.78;79.41;102342.81;5090252;28;20119;-51
2024/02/18 10:13:45;;;;;;;17.45;7.78;;;;;;;13.54;80.21;102339.63;5090211;28;20346;-49
2024/02/18 10:16:10;;;;;;;16.95;8.20;;;;;;;13.58;79.77;102335.34;5090799;28;20031;-48
2024/02/18 10:18:35;;;;;;;18.33;8.60;;;;;;;13.63;80.45;102346.81;5088958;28;20034;-47
2024/02/18 10:21:00;;;;;;;16.73;8.48;;;;;;;13.47;80.97;102340.34;5088190;28;20119;-52
2024/02/18 10:23:26;;;;;;;14.88;8.52;;;;;;;13.67;80.16;102341.69;5091057;28;20036;-47
2024/02/18 10:25:51;;;;;;;18.38;8.40;;;;;;;13.81;79.51;102342.03;5090265;28;20050;-47
2024/02/18 10:28:17;;;;;;;13.73;8.60;;;;;;;13.65;80.17;102330.31;5089550;28;20063;-46
2024/02/18 10:30:42;;;;;;;13.35;7.78;;;;;;;13.66;80.21;102323.34;5089794;28;20040;-50
2024/02/18 10:33:07;;;;;;;17.98;8.05;;;;;;;13.47;79.69;102315.88;5090590;28;20054;-49
2024/02/18 10:35:33;;;;;;;12.50;7.55;;;;;;;13.72;80.25;102298.13;5089979;28;20050;-52
2024/02/18 10:37:58;;;;;;;14.55;7.40;;;;;;;13.10;80.96;102299.22;5090372;28;20502;-47
2024/02/18 10:40:24;;;;;;;11.25;7.20;;;;;;;13.88;79.77;102306.34;5090091;28;20044;-46
2024/02/18 10:42:59;;;;;;;13.00;6.38;;;;;;;13.52;80.98;102301.16;5090007;28;20101;-46
2024/02/18 10:45:25;;;;;;;9.48;6.00;;;;;;;13.72;79.78;102286.78;5089352;28;20062;-47
2024/02/18 10:47:55;;;;;;;11.90;5.55;;;;;;;13.42;80.74;102281.69;5090312;28;20032;-48
2024/02/18 10:50:27;;;;;;;9.38;5.45;;;;;;;13.15;81.87;102270.53;5089604;28;20115;-47
2024/02/18 10:53:11;;;;;;;9.07;5.35;;;;;;;13.37;81.18;102268.47;5089390;28;20032;-48
2024/02/18 10:55:50;;;;;;;7.97;5.20;;;;;;;13.55;80.47;102254.94;5089550;28;20484;-47
2024/02/18 10:58:20;;;;;;;9.82;5.53;;;;;;;13.54;80.16;102257.53;5090115;28;20349;-46
2024/02/18 11:00:47;;;;;;;9.15;5.43;;;;;;;13.40;80.77;102238.88;5088957;28;20044;-50
2024/02/18 11:03:21;;;;;;;9.00;5.68;;;;;;;13.61;80.26;102238.47;5089880;28;20048;-46
2024/02/18 11:05:50;;;;;;;8.63;5.75;;;;;;;13.62;80.71;102235.00;5089583;28;20089;-47
2024/02/18 11:08:16;;;;;;;8.95;5.68;;;;;;;13.63;80.22;102224.56;5072352;28;20058;-47
2024/02/18 11:10:44;;;;;;;9.48;5.97;;;;;;;13.41;80.29;102214.44;5088880;28;20040;-47
2024/02/18 11:13:10;;;;;;;10.02;5.68;;;;;;;13.54;80.86;102216.47;5089772;28;20031;-49